Seapace — 9HA2223 — position and weather

sailwx.info

Track history (hours):
 
Tides and Currents Weather Stations Pressure Air Temp Water Temp Dewpoint Dewpoint Depression Visibility Wind Speed Wind Dir Waves Ship Positions

Seapace

Last reported at 2018-Jan-12 14:57 UTC. Time now 2018-Feb-21 11:53 UTC.
Position S 29°53' E 031°02'.
Warning: this ship's position is 39 days out of date.

Length 190 m; draft 6.5 m.

Type: Cargo ship. MMSI: 248184000.

Date/timePositionNaut miles runAvg speedWind from/ knotsBaromVisibWave heightAir tempDewpointWater temp
2018-Jan-12 14:57S 29°53' E 031°02'0 0.0
2018-Jan-12 14:30S 29°53' E 031°02'0 0.0
2018-Jan-12 14:00S 29°53' E 031°02'0 0.1
2018-Jan-12 13:30S 29°53' E 031°02'4 8.6
2018-Jan-12 13:00S 29°50' E 031°06'2 4.2
2018-Jan-12 12:30S 29°49' E 031°08'2 4.4
2018-Jan-12 12:00S 29°51' E 031°08'3 5.9
2018-Jan-12 11:30S 29°49' E 031°10'4 7.2
2018-Jan-12 11:00S 29°45' E 031°12'5 9.4
2018-Jan-12 10:31S 29°42' E 031°16'714.0
2018-Jan-12 10:00S 29°37' E 031°22'713.7
2018-Jan-12 09:30S 29°33' E 031°28'713.4
2018-Jan-12 09:00S 29°29' E 031°34'713.1
2018-Jan-12 08:30S 29°25' E 031°40'  
Track history (hours):
 
Tides and Currents Weather Stations Pressure Air Temp Water Temp Dewpoint Dewpoint Depression Visibility Wind Speed Wind Dir Waves Ship Positions

Seapace

Last reported at 2018-Jan-12 14:57 UTC. Time now 2018-Feb-21 11:53 UTC.
Position S 29°53' E 031°02'.
Warning: this ship's position is 39 days out of date.

Length 190 m; draft 6.5 m.

Type: Cargo ship. MMSI: 248184000.

Date/timePositionNaut miles runAvg speedWind from/ knotsBaromVisibWave heightAir tempDewpointWater temp
2018-Jan-12 14:57S 29°53' E 031°02'0 0.0
2018-Jan-12 14:30S 29°53' E 031°02'0 0.0
2018-Jan-12 14:00S 29°53' E 031°02'0 0.1
2018-Jan-12 13:30S 29°53' E 031°02'4 8.6
2018-Jan-12 13:00S 29°50' E 031°06'2 4.2
2018-Jan-12 12:30S 29°49' E 031°08'2 4.4
2018-Jan-12 12:00S 29°51' E 031°08'3 5.9
2018-Jan-12 11:30S 29°49' E 031°10'4 7.2
2018-Jan-12 11:00S 29°45' E 031°12'5 9.4
2018-Jan-12 10:31S 29°42' E 031°16'714.0
2018-Jan-12 10:00S 29°37' E 031°22'713.7
2018-Jan-12 09:30S 29°33' E 031°28'713.4
2018-Jan-12 09:00S 29°29' E 031°34'713.1
2018-Jan-12 08:30S 29°25' E 031°40'  

Dump ship's entire track history